Time;durP1;ratioP1;P1;durP2;ratioP2;P2;SDS_P1;SDS_P2;PMS_P1;PMS_P2;Temp;Humidity;BMP_temperature;BMP_pressure;BME280_temperature;BME280_humidity;BME280_pressure;Samples;Min_cycle;Max_cycle;Signal;HPM_P1;HPM_P2
2023/09/24 00:00:10;;;;;;;13.75;10.82;;;;;;;-148.88;100.00;-17125.47;5032206;28;20029;-75
2023/09/24 00:02:38;;;;;;;17.63;12.45;;;;;;;-148.88;100.00;-17125.47;5032134;28;20049;-76
2023/09/24 00:05:07;;;;;;;16.48;11.32;;;;;;;-148.88;100.00;-17125.47;5032750;28;20025;-76
2023/09/24 00:07:33;;;;;;;12.73;11.07;;;;;;;-148.88;100.00;-17125.47;5035997;28;20040;-76
2023/09/24 00:10:00;;;;;;;14.30;11.52;;;;;;;-148.88;100.00;-17125.47;5035673;28;20041;-76
2023/09/24 00:12:28;;;;;;;14.43;11.95;;;;;;;-148.88;100.00;-17125.47;5017763;28;20525;-76
2023/09/24 00:14:54;;;;;;;14.68;12.20;;;;;;;-148.88;100.00;-17125.47;5035512;28;20025;-76
2023/09/24 00:17:19;;;;;;;14.70;11.38;;;;;;;-148.88;100.00;-17125.47;5035469;28;20098;-77
2023/09/24 00:19:47;;;;;;;15.50;12.32;;;;;;;-148.88;100.00;-17125.47;5035448;28;20033;-76
2023/09/24 00:22:13;;;;;;;17.42;12.52;;;;;;;-148.88;100.00;-17125.47;5035686;28;20018;-76
2023/09/24 00:24:38;;;;;;;14.60;12.45;;;;;;;-148.88;100.00;-17125.47;5035476;28;20021;-76
2023/09/24 00:27:04;;;;;;;15.18;12.32;;;;;;;-148.88;100.00;-17125.47;5035304;28;20049;-76
2023/09/24 00:29:31;;;;;;;16.20;12.80;;;;;;;-148.88;100.00;-17125.47;5035341;28;20057;-77
2023/09/24 00:31:56;;;;;;;15.73;13.40;;;;;;;-148.88;100.00;-17125.47;5035570;28;20033;-76
2023/09/24 00:34:22;;;;;;;17.17;13.55;;;;;;;-148.88;100.00;-17125.47;5035267;28;20092;-76
2023/09/24 00:36:50;;;;;;;18.60;13.85;;;;;;;-148.88;100.00;-17125.47;5035314;28;20029;-76
2023/09/24 00:39:16;;;;;;;16.30;13.63;;;;;;;-148.88;100.00;-17125.47;5035698;28;20116;-76
2023/09/24 00:41:42;;;;;;;21.88;14.57;;;;;;;-148.88;100.00;-17125.47;5017387;28;20088;-76
2023/09/24 00:44:09;;;;;;;16.42;14.00;;;;;;;-148.88;100.00;-17125.47;5034889;28;20018;-76
2023/09/24 00:46:34;;;;;;;20.17;15.38;;;;;;;-148.88;100.00;-17125.47;5035158;28;20470;-76
2023/09/24 00:49:00;;;;;;;20.65;15.27;;;;;;;-148.88;100.00;-17125.47;5017041;28;20040;-76
2023/09/24 00:51:27;;;;;;;19.40;14.65;;;;;;;-148.88;100.00;-17125.47;5035229;28;20026;-76
2023/09/24 00:53:54;;;;;;;17.40;14.75;;;;;;;-148.88;100.00;-17125.47;5017031;28;20108;-76
2023/09/24 00:56:21;;;;;;;21.42;15.20;;;;;;;-148.88;100.00;-17125.47;5034877;28;20029;-77
2023/09/24 00:58:50;;;;;;;20.02;16.15;;;;;;;-148.88;100.00;-17125.47;5034717;28;20104;-76
2023/09/24 01:01:16;;;;;;;20.58;15.43;;;;;;;-148.88;100.00;-17125.47;5034852;28;20104;-76
2023/09/24 01:03:41;;;;;;;21.48;15.32;;;;;;;-148.88;100.00;-17125.47;5034592;28;20105;-74
2023/09/24 01:06:07;;;;;;;18.92;14.95;;;;;;;-148.88;100.00;-17125.47;5016689;28;20029;-76
2023/09/24 01:08:33;;;;;;;17.92;15.52;;;;;;;-148.88;100.00;-17125.47;5016625;28;20040;-76
2023/09/24 01:11:03;;;;;;;16.55;14.77;;;;;;;-148.88;100.00;-17125.47;5034979;28;20025;-78
2023/09/24 01:13:41;;;;;;;16.25;14.10;;;;;;;-148.88;100.00;-17125.47;5016892;28;20021;-76
2023/09/24 01:16:08;;;;;;;21.65;14.13;;;;;;;-148.88;100.00;-17125.47;5034607;28;20048;-75
2023/09/24 01:18:36;;;;;;;19.42;15.18;;;;;;;-148.88;100.00;-17125.47;5034224;28;20375;-77
2023/09/24 01:21:02;;;;;;;16.25;14.15;;;;;;;-148.88;100.00;-17125.47;5016474;28;20029;-76
2023/09/24 01:23:29;;;;;;;17.50;15.20;;;;;;;-148.88;100.00;-17125.47;5034101;28;20021;-76
2023/09/24 01:25:56;;;;;;;17.35;13.65;;;;;;;-148.88;100.00;-17125.47;5016376;28;20108;-76
2023/09/24 01:28:21;;;;;;;20.05;14.88;;;;;;;-148.88;100.00;-17125.47;5034171;28;20021;-76
2023/09/24 01:30:47;;;;;;;17.70;15.13;;;;;;;-148.88;100.00;-17125.47;5034119;28;20063;-76
2023/09/24 01:33:12;;;;;;;18.83;15.40;;;;;;;-148.88;100.00;-17125.47;5033931;28;20026;-76
2023/09/24 01:35:38;;;;;;;17.85;14.75;;;;;;;-148.88;100.00;-17125.47;5016138;28;20072;-77
2023/09/24 01:38:04;;;;;;;21.25;15.20;;;;;;;-148.88;100.00;-17125.47;5016008;28;20079;-75
2023/09/24 01:40:32;;;;;;;20.23;14.95;;;;;;;-148.88;100.00;-17125.47;5033809;28;20038;-76
2023/09/24 01:42:58;;;;;;;21.73;15.77;;;;;;;-148.88;100.00;-17125.47;5015912;28;20029;-76
2023/09/24 01:45:25;;;;;;;23.88;16.67;;;;;;;-148.88;100.00;-17125.47;5015843;28;20025;-76
2023/09/24 01:47:51;;;;;;;21.60;16.73;;;;;;;-148.88;100.00;-17125.47;5016091;28;20033;-76
2023/09/24 01:50:17;;;;;;;21.25;17.10;;;;;;;-148.88;100.00;-17125.47;5016170;28;20028;-76
2023/09/24 01:52:45;;;;;;;24.63;17.42;;;;;;;-148.88;100.00;-17125.47;5016090;28;20021;-76
2023/09/24 01:55:15;;;;;;;22.65;17.48;;;;;;;-148.88;100.00;-17125.47;5015762;28;20033;-77
2023/09/24 01:57:44;;;;;;;21.60;16.70;;;;;;;-148.88;100.00;-17125.47;5034326;28;20021;-76
2023/09/24 02:00:26;;;;;;;24.98;18.13;;;;;;;-148.88;100.00;-17125.47;5033435;28;20457;-76
2023/09/24 02:02:59;;;;;;;24.00;17.38;;;;;;;-148.88;100.00;-17125.47;5015851;28;20124;-77
2023/09/24 02:05:32;;;;;;;25.08;17.63;;;;;;;-148.88;100.00;-17125.47;5015867;28;20025;-76
2023/09/24 02:07:58;;;;;;;22.27;18.10;;;;;;;-148.88;100.00;-17125.47;5015635;28;20044;-76
2023/09/24 02:10:23;;;;;;;21.05;17.10;;;;;;;-148.88;100.00;-17125.47;5033177;28;20382;-75
2023/09/24 02:12:49;;;;;;;22.42;17.73;;;;;;;-148.88;100.00;-17125.47;5033519;28;20022;-76
2023/09/24 02:15:18;;;;;;;23.38;17.65;;;;;;;-148.88;100.00;-17125.47;5033712;28;20017;-76
2023/09/24 02:17:45;;;;;;;23.75;18.45;;;;;;;-148.88;100.00;-17125.47;5015543;28;20022;-76
2023/09/24 02:20:22;;;;;;;25.70;19.20;;;;;;;-148.88;100.00;-17125.47;5033322;28;20030;-76
2023/09/24 02:22:49;;;;;;;23.50;18.55;;;;;;;-148.88;100.00;-17125.47;5015481;28;20375;-76
2023/09/24 02:25:19;;;;;;;25.13;19.25;;;;;;;-148.88;100.00;-17125.47;5033216;28;20034;-76
2023/09/24 02:27:44;;;;;;;28.23;19.52;;;;;;;-148.88;100.00;-17125.47;5033149;28;20026;-76
2023/09/24 02:30:11;;;;;;;24.73;19.65;;;;;;;-148.88;100.00;-17125.47;5033083;28;20436;-75
2023/09/24 02:32:38;;;;;;;24.98;18.73;;;;;;;-148.88;100.00;-17125.47;5033384;28;20117;-76
2023/09/24 02:35:04;;;;;;;24.85;18.40;;;;;;;-148.88;100.00;-17125.47;5033301;28;20492;-76
2023/09/24 02:37:30;;;;;;;25.35;18.38;;;;;;;-148.88;100.00;-17125.47;5033088;28;20067;-76
2023/09/24 02:39:56;;;;;;;25.73;19.00;;;;;;;-148.88;100.00;-17125.47;5033008;28;20052;-76
2023/09/24 02:42:22;;;;;;;23.45;18.95;;;;;;;-148.88;100.00;-17125.47;5033241;28;20041;-76
2023/09/24 02:44:48;;;;;;;25.42;19.70;;;;;;;-148.88;100.00;-17125.47;5033363;28;20044;-76
2023/09/24 02:47:15;;;;;;;25.50;18.85;;;;;;;-148.88;100.00;-17125.47;5032822;28;20116;-76
2023/09/24 02:49:40;;;;;;;30.17;20.48;;;;;;;-148.88;100.00;-17125.47;5032818;28;20033;-76
2023/09/24 02:52:06;;;;;;;27.63;21.00;;;;;;;-148.88;100.00;-17125.47;5032645;28;20041;-77
2023/09/24 02:54:31;;;;;;;27.23;19.63;;;;;;;-148.88;100.00;-17125.47;5014996;28;20101;-76
2023/09/24 02:56:58;;;;;;;27.25;20.55;;;;;;;-148.88;100.00;-17125.47;5032676;28;20036;-76
2023/09/24 02:59:24;;;;;;;24.75;19.98;;;;;;;-148.88;100.00;-17125.47;5032361;28;20021;-76
2023/09/24 03:01:51;;;;;;;22.30;18.58;;;;;;;-148.88;100.00;-17125.47;5015004;28;20048;-76
2023/09/24 03:04:17;;;;;;;29.10;19.30;;;;;;;-148.88;100.00;-17125.47;5014692;28;20122;-76
2023/09/24 03:06:43;;;;;;;25.02;19.42;;;;;;;-148.88;100.00;-17125.47;5032537;28;20478;-76
2023/09/24 03:09:10;;;;;;;28.85;18.83;;;;;;;-148.88;100.00;-17125.47;5032332;28;20037;-75
2023/09/24 03:11:36;;;;;;;25.42;18.92;;;;;;;-148.88;100.00;-17125.47;5032349;28;20029;-75
2023/09/24 03:14:02;;;;;;;27.58;19.83;;;;;;;-148.88;100.00;-17125.47;5032286;28;20014;-75
2023/09/24 03:16:28;;;;;;;26.60;19.33;;;;;;;-148.88;100.00;-17125.47;5014436;28;20044;-76
2023/09/24 03:18:54;;;;;;;25.45;19.10;;;;;;;-148.88;100.00;-17125.47;5032178;28;20504;-76
2023/09/24 03:21:20;;;;;;;24.27;19.83;;;;;;;-148.88;100.00;-17125.47;5014442;28;20026;-76
2023/09/24 03:23:45;;;;;;;26.88;18.70;;;;;;;-148.88;100.00;-17125.47;5032093;28;20385;-76
2023/09/24 03:26:14;;;;;;;27.63;17.80;;;;;;;-148.88;100.00;-17125.47;5032210;28;20029;-76
2023/09/24 03:28:41;;;;;;;23.40;18.65;;;;;;;-148.88;100.00;-17125.47;5014273;28;20203;-77
2023/09/24 03:31:14;;;;;;;23.98;17.85;;;;;;;-148.88;100.00;-17125.47;5032021;28;20021;-76
2023/09/24 03:33:39;;;;;;;22.00;17.30;;;;;;;-148.88;100.00;-17125.47;5014605;28;20021;-76
2023/09/24 03:36:07;;;;;;;22.38;18.00;;;;;;;-148.88;100.00;-17125.47;5032019;28;20393;-76
2023/09/24 03:38:33;;;;;;;23.70;17.70;;;;;;;-148.88;100.00;-17125.47;5032398;28;20049;-77
2023/09/24 03:40:59;;;;;;;20.40;15.68;;;;;;;-148.88;100.00;-17125.47;5015801;28;20044;-76
2023/09/24 03:43:24;;;;;;;19.73;15.93;;;;;;;-148.88;100.00;-17125.47;5036407;28;20075;-75
2023/09/24 03:45:49;;;;;;;18.58;15.40;;;;;;;-148.88;100.00;-17125.47;5036632;28;20029;-76
2023/09/24 03:48:15;;;;;;;19.23;16.17;;;;;;;-148.88;100.00;-17125.47;5036167;28;20461;-76
2023/09/24 03:50:40;;;;;;;20.08;16.13;;;;;;;-148.88;100.00;-17125.47;5036122;28;20420;-77
2023/09/24 03:53:05;;;;;;;20.52;16.30;;;;;;;-148.88;100.00;-17125.47;5036173;28;20394;-76
2023/09/24 03:55:31;;;;;;;21.75;16.38;;;;;;;-148.88;100.00;-17125.47;5018028;28;20104;-77
2023/09/24 03:57:56;;;;;;;20.45;15.15;;;;;;;-148.88;100.00;-17125.47;5035831;28;20017;-75
2023/09/24 04:00:22;;;;;;;20.10;16.05;;;;;;;-148.88;100.00;-17125.47;5018048;28;20025;-77
2023/09/24 04:02:49;;;;;;;19.00;15.85;;;;;;;-148.88;100.00;-17125.47;5035995;28;20076;-75
2023/09/24 04:05:17;;;;;;;20.45;15.43;;;;;;;-148.88;100.00;-17125.47;5035676;28;20037;-76
2023/09/24 04:07:52;;;;;;;20.48;14.98;;;;;;;-148.88;100.00;-17125.47;5035786;28;20543;-77
2023/09/24 04:10:19;;;;;;;19.10;14.57;;;;;;;-148.88;100.00;-17125.47;5035804;28;20029;-76
2023/09/24 04:12:51;;;;;;;20.05;16.27;;;;;;;-148.88;100.00;-17125.47;5017919;28;20044;-76
2023/09/24 04:15:19;;;;;;;20.63;15.68;;;;;;;-148.88;100.00;-17125.47;5036212;28;20029;-77
2023/09/24 04:17:51;;;;;;;20.17;15.88;;;;;;;-148.88;100.00;-17125.47;5017784;28;20076;-76
2023/09/24 04:20:20;;;;;;;19.48;14.93;;;;;;;-148.88;100.00;-17125.47;5035798;28;20022;-76
2023/09/24 04:22:45;;;;;;;20.83;15.57;;;;;;;-148.88;100.00;-17125.47;5017865;28;20394;-77
2023/09/24 04:25:14;;;;;;;20.27;14.95;;;;;;;-148.88;100.00;-17125.47;5035500;28;20562;-76
2023/09/24 04:27:40;;;;;;;23.42;16.33;;;;;;;-148.88;100.00;-17125.47;5035591;28;20030;-76
2023/09/24 04:30:11;;;;;;;19.75;16.08;;;;;;;-148.88;100.00;-17125.47;5035184;28;20040;-76
2023/09/24 04:32:36;;;;;;;22.67;16.52;;;;;;;-148.88;100.00;-17125.47;5035386;28;20029;-76
2023/09/24 04:35:02;;;;;;;18.98;15.35;;;;;;;-148.88;100.00;-17125.47;5035143;28;20041;-76
2023/09/24 04:37:30;;;;;;;23.52;16.48;;;;;;;-148.88;100.00;-17125.47;5034980;28;20021;-76
2023/09/24 04:39:55;;;;;;;20.98;16.20;;;;;;;-148.88;100.00;-17125.47;5017398;28;20049;-75
2023/09/24 04:42:21;;;;;;;21.73;15.57;;;;;;;-148.88;100.00;-17125.47;5034881;28;20029;-76
2023/09/24 04:44:46;;;;;;;20.80;16.20;;;;;;;-148.88;100.00;-17125.47;5017763;28;20029;-75
2023/09/24 04:47:12;;;;;;;18.58;14.60;;;;;;;-148.88;100.00;-17125.47;5034838;28;20021;-77
2023/09/24 04:52:05;;;;;;;20.58;15.52;;;;;;;-148.88;100.00;-17125.47;5051796;28;20041;-76
2023/09/24 04:54:31;;;;;;;21.08;17.45;;;;;;;-148.88;100.00;-17125.47;5054573;28;20390;-77
2023/09/24 04:56:56;;;;;;;24.10;16.38;;;;;;;-148.88;100.00;-17125.47;5054595;28;20116;-77
2023/09/24 04:59:22;;;;;;;23.30;17.75;;;;;;;-148.88;100.00;-17125.47;5054798;28;20048;-76
2023/09/24 05:01:47;;;;;;;24.58;18.13;;;;;;;-148.88;100.00;-17125.47;5036651;28;20032;-77
2023/09/24 05:04:12;;;;;;;22.17;16.88;;;;;;;-148.88;100.00;-17125.47;5054244;23;20065;-78
2023/09/24 05:06:38;;;;;;;25.35;17.90;;;;;;;-148.88;100.00;-17125.47;5036846;28;20623;-77
2023/09/24 05:09:04;;;;;;;21.58;17.67;;;;;;;-148.88;100.00;-17125.47;5035272;28;20135;-78
2023/09/24 05:11:29;;;;;;;23.48;19.00;;;;;;;-148.88;100.00;-17125.47;5037339;28;20055;-77
2023/09/24 05:13:54;;;;;;;29.35;18.95;;;;;;;-148.88;100.00;-17125.47;5036990;28;20462;-78
2023/09/24 05:16:21;;;;;;;27.55;18.63;;;;;;;-148.88;100.00;-17125.47;5037738;28;20076;-78
2023/09/24 05:18:47;;;;;;;25.17;19.00;;;;;;;-148.88;100.00;-17125.47;5036246;28;20045;-77
2023/09/24 05:21:17;;;;;;;30.75;20.17;;;;;;;-148.88;100.00;-17125.47;5035986;28;20025;-78
2023/09/24 05:23:43;;;;;;;29.90;20.60;;;;;;;-148.88;100.00;-17125.47;5034327;28;20025;-76
2023/09/24 05:26:13;;;;;;;27.48;19.92;;;;;;;-148.88;100.00;-17125.47;5035115;28;20029;-76
2023/09/24 05:28:39;;;;;;;29.42;21.38;;;;;;;-148.88;100.00;-17125.47;5033239;28;20028;-76
2023/09/24 05:31:05;;;;;;;32.20;20.90;;;;;;;-148.88;100.00;-17125.47;5034456;28;20025;-76
2023/09/24 05:33:30;;;;;;;28.20;19.88;;;;;;;-148.88;100.00;-17125.47;5033094;28;20055;-76
2023/09/24 05:35:56;;;;;;;29.48;20.30;;;;;;;-148.88;100.00;-17125.47;5033008;28;20030;-76
2023/09/24 05:38:22;;;;;;;30.15;21.17;;;;;;;-148.88;100.00;-17125.47;5033068;28;20024;-77
2023/09/24 05:40:47;;;;;;;32.42;21.92;;;;;;;-148.88;100.00;-17125.47;5034519;28;20557;-76
2023/09/24 05:43:13;;;;;;;33.97;22.45;;;;;;;-148.88;100.00;-17125.47;5032804;28;20029;-76
2023/09/24 05:45:49;;;;;;;37.38;24.15;;;;;;;-148.88;100.00;-17125.47;5034496;28;20134;-76
2023/09/24 05:48:16;;;;;;;39.92;25.27;;;;;;;-148.88;100.00;-17125.47;5034589;28;20033;-77
2023/09/24 05:50:42;;;;;;;37.85;25.90;;;;;;;-148.88;100.00;-17125.47;5034083;28;20023;-76
2023/09/24 05:53:11;;;;;;;39.97;26.17;;;;;;;-148.88;100.00;-17125.47;5034306;28;20013;-76
2023/09/24 05:55:37;;;;;;;40.05;27.27;;;;;;;-148.88;100.00;-17125.47;5033094;28;20025;-76
2023/09/24 05:58:04;;;;;;;43.22;27.35;;;;;;;-148.88;100.00;-17125.47;5034109;28;20104;-76
2023/09/24 06:00:31;;;;;;;43.60;27.23;;;;;;;-148.88;100.00;-17125.47;5034036;28;20504;-76
2023/09/24 06:02:57;;;;;;;41.80;26.05;;;;;;;-148.88;100.00;-17125.47;5031737;28;20029;-76
2023/09/24 06:05:23;;;;;;;42.53;27.38;;;;;;;-148.88;100.00;-17125.47;5033882;28;20528;-76
2023/09/24 06:07:48;;;;;;;42.13;27.70;;;;;;;-148.88;100.00;-17125.47;5033827;28;20054;-76
2023/09/24 06:10:13;;;;;;;41.85;26.30;;;;;;;-148.88;100.00;-17125.47;5032643;28;20489;-76
2023/09/24 06:12:39;;;;;;;43.40;26.90;;;;;;;-148.88;100.00;-17125.47;5032249;28;20438;-76
2023/09/24 06:15:05;;;;;;;40.20;26.33;;;;;;;-148.88;100.00;-17125.47;5032250;28;20045;-76
2023/09/24 06:17:30;;;;;;;40.38;27.13;;;;;;;-148.88;100.00;-17125.47;5034272;28;20025;-76
2023/09/24 06:19:55;;;;;;;45.28;26.50;;;;;;;-148.88;100.00;-17125.47;5032506;28;20017;-76
2023/09/24 06:22:24;;;;;;;38.25;26.17;;;;;;;-148.88;100.00;-17125.47;5034206;28;20017;-76
2023/09/24 06:24:50;;;;;;;42.85;27.55;;;;;;;-148.88;100.00;-17125.47;5034112;28;20391;-76
2023/09/24 06:27:16;;;;;;;42.65;27.98;;;;;;;-148.88;100.00;-17125.47;5033994;28;20511;-77
2023/09/24 06:29:42;;;;;;;43.28;27.95;;;;;;;-148.88;100.00;-17125.47;5032548;28;20025;-77
2023/09/24 06:32:08;;;;;;;44.33;27.23;;;;;;;-148.88;100.00;-17125.47;5034143;28;20029;-76
2023/09/24 06:34:35;;;;;;;43.90;27.23;;;;;;;-148.88;100.00;-17125.47;5034016;28;20047;-76
2023/09/24 06:37:01;;;;;;;45.40;27.83;;;;;;;-148.88;100.00;-17125.47;5033504;28;20163;-76
2023/09/24 06:39:26;;;;;;;42.13;26.48;;;;;;;-148.88;100.00;-17125.47;5033915;28;20448;-76
2023/09/24 06:41:51;;;;;;;45.13;27.75;;;;;;;-148.88;100.00;-17125.47;5033343;28;20021;-76
2023/09/24 06:44:22;;;;;;;45.95;27.55;;;;;;;-148.88;100.00;-17125.47;5033658;28;20051;-76
2023/09/24 06:46:47;;;;;;;41.97;27.55;;;;;;;-148.88;100.00;-17125.47;5033407;28;20069;-76
2023/09/24 06:49:13;;;;;;;44.78;29.90;;;;;;;-148.88;100.00;-17125.47;5033068;28;20026;-76
2023/09/24 06:51:39;;;;;;;46.85;30.25;;;;;;;-148.88;100.00;-17125.47;5033451;28;20409;-76
2023/09/24 06:54:04;;;;;;;49.58;31.85;;;;;;;-148.88;100.00;-17125.47;5033829;28;20017;-76
2023/09/24 06:56:29;;;;;;;51.33;32.25;;;;;;;-148.88;100.00;-17125.47;5033364;28;20028;-76
2023/09/24 06:58:55;;;;;;;50.15;32.08;;;;;;;-148.88;100.00;-17125.47;5033176;28;20338;-76
2023/09/24 07:01:20;;;;;;;54.58;33.80;;;;;;;-148.88;100.00;-17125.47;5031690;28;20442;-76
2023/09/24 07:03:47;;;;;;;56.25;33.28;;;;;;;-148.88;100.00;-17125.47;5033037;28;20079;-76
2023/09/24 07:06:13;;;;;;;59.00;33.67;;;;;;;-148.88;100.00;-17125.47;5032877;28;20026;-77
2023/09/24 07:08:38;;;;;;;58.65;34.00;;;;;;;-148.88;100.00;-17125.47;5033531;28;20021;-76
2023/09/24 07:11:24;;;;;;;54.45;33.42;;;;;;;-148.88;100.00;-17125.47;5033109;28;20096;-76
2023/09/24 07:13:50;;;;;;;54.40;34.28;;;;;;;-148.88;100.00;-17125.47;5033401;28;20533;-76
2023/09/24 07:16:15;;;;;;;50.92;32.58;;;;;;;-148.88;100.00;-17125.47;5032853;28;20477;-76
2023/09/24 07:18:41;;;;;;;48.72;31.90;;;;;;;-148.88;100.00;-17125.47;5032787;28;20025;-76
2023/09/24 07:21:07;;;;;;;50.08;31.85;;;;;;;-148.88;100.00;-17125.47;5032492;28;20071;-76
2023/09/24 07:23:32;;;;;;;49.55;31.25;;;;;;;-148.88;100.00;-17125.47;5032804;28;20044;-76
2023/09/24 07:25:58;;;;;;;48.92;30.80;;;;;;;-148.88;100.00;-17125.47;5032791;28;20025;-76
2023/09/24 07:28:25;;;;;;;47.67;31.02;;;;;;;-148.88;100.00;-17125.47;5031182;28;20036;-76
2023/09/24 07:30:53;;;;;;;49.40;30.90;;;;;;;-148.88;100.00;-17125.47;5032705;28;20104;-76
2023/09/24 07:33:20;;;;;;;46.10;29.08;;;;;;;-148.88;100.00;-17125.47;5032957;28;20072;-77
2023/09/24 07:35:46;;;;;;;44.50;28.42;;;;;;;-148.88;100.00;-17125.47;5032379;28;20091;-77
2023/09/24 07:38:11;;;;;;;43.85;28.13;;;;;;;-148.88;100.00;-17125.47;5031893;28;20466;-77
2023/09/24 07:40:37;;;;;;;44.47;29.27;;;;;;;-148.88;100.00;-17125.47;5033342;28;20068;-77
2023/09/24 07:43:03;;;;;;;45.50;27.77;;;;;;;-148.88;100.00;-17125.47;5032768;28;20060;-77
2023/09/24 07:45:28;;;;;;;41.95;27.10;;;;;;;-148.88;100.00;-17125.47;5031804;28;20196;-77
2023/09/24 07:47:54;;;;;;;40.17;26.73;;;;;;;-148.88;100.00;-17125.47;5032545;28;20029;-76
2023/09/24 07:50:19;;;;;;;40.85;26.77;;;;;;;-148.88;100.00;-17125.47;5033021;28;20029;-77
2023/09/24 07:52:44;;;;;;;35.08;23.98;;;;;;;-148.88;100.00;-17125.47;5032885;28;20112;-77
2023/09/24 07:55:10;;;;;;;40.25;24.48;;;;;;;-148.88;100.00;-17125.47;5033234;28;20109;-77
2023/09/24 07:57:35;;;;;;;34.10;24.08;;;;;;;-148.88;100.00;-17125.47;5033009;28;20025;-77
2023/09/24 08:00:03;;;;;;;34.30;23.30;;;;;;;-148.88;100.00;-17125.47;5031611;28;20026;-77
2023/09/24 08:02:30;;;;;;;34.85;21.85;;;;;;;-148.88;100.00;-17125.47;5032574;28;20436;-77
2023/09/24 08:04:57;;;;;;;36.30;22.75;;;;;;;-148.88;100.00;-17125.47;5033373;28;20025;-77
2023/09/24 08:07:26;;;;;;;33.47;20.95;;;;;;;-148.88;100.00;-17125.47;5031868;28;20029;-77
2023/09/24 08:09:51;;;;;;;28.10;18.95;;;;;;;-148.88;100.00;-17125.47;5031840;28;20068;-77
2023/09/24 08:12:17;;;;;;;29.58;20.52;;;;;;;-148.88;100.00;-17125.47;5033426;28;20029;-77
2023/09/24 08:14:43;;;;;;;31.38;20.35;;;;;;;-148.88;100.00;-17125.47;5033948;28;20459;-77
2023/09/24 08:17:10;;;;;;;31.48;19.15;;;;;;;-148.88;100.00;-17125.47;5033388;28;20025;-77
2023/09/24 08:19:35;;;;;;;27.25;18.67;;;;;;;-148.88;100.00;-17125.47;5032643;28;20029;-77
2023/09/24 08:22:01;;;;;;;28.73;18.55;;;;;;;-148.88;100.00;-17125.47;5032266;28;20040;-77
2023/09/24 08:24:26;;;;;;;29.20;17.92;;;;;;;-148.88;100.00;-17125.47;5032519;28;20024;-77
2023/09/24 08:26:52;;;;;;;27.30;17.33;;;;;;;-148.88;100.00;-17125.47;5034008;28;20036;-77
2023/09/24 08:29:17;;;;;;;25.08;16.58;;;;;;;-148.88;100.00;-17125.47;5036481;28;20366;-77
2023/09/24 08:31:42;;;;;;;25.23;16.67;;;;;;;-148.88;100.00;-17125.47;5035165;28;20573;-77
2023/09/24 08:34:08;;;;;;;21.73;15.98;;;;;;;-148.88;100.00;-17125.47;5036067;28;20088;-77
2023/09/24 08:36:33;;;;;;;20.98;15.45;;;;;;;-148.88;100.00;-17125.47;5036496;28;20026;-77
2023/09/24 08:39:01;;;;;;;23.88;15.32;;;;;;;-148.88;100.00;-17125.47;5036561;28;20036;-77
2023/09/24 08:41:26;;;;;;;22.92;15.70;;;;;;;-148.88;100.00;-17125.47;5036466;28;20037;-77
2023/09/24 08:43:55;;;;;;;25.83;16.48;;;;;;;-148.88;100.00;-17125.47;5035198;28;20401;-78
2023/09/24 08:46:22;;;;;;;22.85;15.45;;;;;;;-148.88;100.00;-17125.47;5035284;28;20025;-78
2023/09/24 08:48:48;;;;;;;23.02;15.02;;;;;;;-148.88;100.00;-17125.47;5035310;28;20393;-77
2023/09/24 08:51:14;;;;;;;24.45;14.40;;;;;;;-148.88;100.00;-17125.47;5036348;28;20033;-77
2023/09/24 08:53:40;;;;;;;18.08;11.70;;;;;;;-148.88;100.00;-17125.47;5036611;28;20105;-77
2023/09/24 08:56:05;;;;;;;17.48;11.13;;;;;;;-148.88;100.00;-17125.47;5036899;28;20055;-78
2023/09/24 08:58:31;;;;;;;15.75;10.90;;;;;;;-148.88;100.00;-17125.47;5034317;28;20444;-77
2023/09/24 09:00:56;;;;;;;13.90;9.43;;;;;;;-148.88;100.00;-17125.47;5035429;28;20029;-77
2023/09/24 09:03:22;;;;;;;16.75;9.98;;;;;;;-148.88;100.00;-17125.47;5035427;28;20017;-77
2023/09/24 09:05:49;;;;;;;17.98;9.95;;;;;;;-148.88;100.00;-17125.47;5034477;28;20040;-78
2023/09/24 09:08:14;;;;;;;16.27;8.85;;;;;;;-148.88;100.00;-17125.47;5035768;28;20022;-78
2023/09/24 09:10:39;;;;;;;12.45;8.80;;;;;;;-148.88;100.00;-17125.47;5037367;28;20343;-78
2023/09/24 09:13:08;;;;;;;15.07;8.63;;;;;;;-148.88;100.00;-17125.47;5037849;28;20474;-78
2023/09/24 09:15:36;;;;;;;12.20;7.10;;;;;;;-148.88;100.00;-17125.47;5035933;28;20021;-78
2023/09/24 09:18:02;;;;;;;10.73;7.32;;;;;;;-148.88;100.00;-17125.47;5035900;28;20100;-78
2023/09/24 09:20:43;;;;;;;10.32;6.70;;;;;;;-148.88;100.00;-17125.47;5035554;28;20432;-78
2023/09/24 09:23:13;;;;;;;11.38;6.20;;;;;;;-148.88;100.00;-17125.47;5035551;28;20510;-78
2023/09/24 09:25:53;;;;;;;10.00;6.22;;;;;;;-148.88;100.00;-17125.47;5035333;28;20026;-78
2023/09/24 09:28:23;;;;;;;10.43;5.95;;;;;;;-148.88;100.00;-17125.47;5035803;28;20128;-78
2023/09/24 09:31:02;;;;;;;7.03;3.92;;;;;;;-148.88;98.07;-17125.47;5036663;28;20493;-78
2023/09/24 09:33:29;;;;;;;8.07;4.00;;;;;;;-148.88;96.53;-17125.47;5036088;28;20397;-78
2023/09/24 09:35:57;;;;;;;7.68;4.15;;;;;;;-148.88;96.58;-17125.47;5034885;28;20437;-78
2023/09/24 09:38:24;;;;;;;7.80;3.80;;;;;;;-148.88;93.47;-17125.47;5035261;28;20028;-78
2023/09/24 09:40:56;;;;;;;8.05;3.33;;;;;;;-148.88;91.47;-17125.47;5035220;28;20385;-78
2023/09/24 09:43:25;;;;;;;9.93;3.70;;;;;;;-148.88;92.88;-17125.47;5033866;28;20041;-78
2023/09/24 09:45:53;;;;;;;5.28;2.60;;;;;;;-148.88;91.29;-17125.47;5035617;28;20049;-78
2023/09/24 09:48:29;;;;;;;7.03;2.80;;;;;;;-148.88;88.80;-17125.47;5034629;28;20022;-78
2023/09/24 09:51:01;;;;;;;3.97;2.03;;;;;;;-148.88;90.26;-17125.47;5036183;28;20516;-78
2023/09/24 09:53:31;;;;;;;4.07;2.15;;;;;;;-148.88;85.99;-17125.47;5036583;28;20025;-79
2023/09/24 09:55:57;;;;;;;3.75;1.75;;;;;;;-148.88;86.10;-17125.47;5037179;28;20108;-79
2023/09/24 09:58:23;;;;;;;6.28;2.35;;;;;;;-148.88;85.54;-17125.47;5036965;28;20100;-79
2023/09/24 10:00:51;;;;;;;7.00;2.47;;;;;;;-148.88;82.42;-17125.47;5036678;28;20064;-79
2023/09/24 10:03:18;;;;;;;6.88;2.60;;;;;;;-148.88;85.65;-17125.47;5035413;28;20580;-79
2023/09/24 10:05:44;;;;;;;7.15;2.90;;;;;;;-148.88;81.34;-17125.47;5038957;28;20045;-79
2023/09/24 10:08:45;;;;;;;5.00;1.50;;;;;;;-148.88;78.62;-17125.47;5039279;28;20025;-78
2023/09/24 10:11:32;;;;;;;6.60;2.10;;;;;;;-148.88;76.21;-17125.47;5036847;28;20037;-79
2023/09/24 10:13:59;;;;;;;6.38;1.95;;;;;;;-148.88;77.43;-17125.47;5036882;28;20021;-79
2023/09/24 10:16:30;;;;;;;5.10;1.77;;;;;;;-148.88;72.75;-17125.47;5036785;28;20030;-79
2023/09/24 10:19:05;;;;;;;4.50;1.55;;;;;;;-148.88;74.11;-17125.47;5034435;28;20456;-79
2023/09/24 10:21:32;;;;;;;4.43;1.75;;;;;;;-148.88;76.25;-17125.47;5034269;28;20462;-78
2023/09/24 10:23:59;;;;;;;5.05;2.00;;;;;;;-148.88;68.86;-17125.47;5035755;28;20052;-78
2023/09/24 10:26:49;;;;;;;4.72;1.70;;;;;;;-148.88;73.45;-17125.47;5035654;28;20036;-78
2023/09/24 10:29:16;;;;;;;5.38;1.70;;;;;;;-148.88;70.80;-17125.47;5035401;28;20017;-79
2023/09/24 10:32:07;;;;;;;6.13;1.98;;;;;;;-148.88;74.11;-17125.47;5036913;28;20025;-78
2023/09/24 10:34:51;;;;;;;3.70;1.60;;;;;;;-148.88;72.45;-17125.47;5035664;28;20036;-78
2023/09/24 10:37:30;;;;;;;5.82;2.08;;;;;;;-148.88;73.76;-17125.47;5036808;28;20026;-78
2023/09/24 10:39:59;;;;;;;6.15;1.80;;;;;;;-148.88;76.37;-17125.47;5034498;28;20394;-78
2023/09/24 10:42:29;;;;;;;4.18;1.80;;;;;;;-148.88;70.75;-17125.47;5036568;28;20053;-79
2023/09/24 10:45:07;;;;;;;4.53;1.80;;;;;;;-148.88;69.20;-17125.47;5035306;28;20501;-79
2023/09/24 10:47:38;;;;;;;4.47;1.80;;;;;;;-148.88;71.53;-17125.47;5033456;28;20477;-78
2023/09/24 10:50:19;;;;;;;5.22;1.50;;;;;;;-148.88;67.56;-17125.47;5032976;28;20053;-78
2023/09/24 10:53:00;;;;;;;3.70;1.35;;;;;;;-148.88;68.25;-17125.47;5035425;28;20033;-78